| time (UTC) | temp F | wind direction | speed MPH | gust MPH | rain 1hr in | rain 24hr in | rain mn in | humidity % | barometer mb |
| 20260902215641 | 59 | 301 | 9.0 | 16.0 | 0.00 | 0.00 | 0.00 | 72 | 1020.3 |
| 20260902214137 | 59 | 315 | 9.0 | 14.0 | 0.00 | 0.00 | 0.00 | 74 | 1020.3 |
| 20260902212638 | 58 | 306 | 10.0 | 13.0 | 0.00 | 0.00 | 0.00 | 77 | 1020.3 |
| 20260902211135 | 57 | 34 | 9.0 | 13.0 | 0.00 | 0.00 | 0.00 | 81 | 1020.1 |
| 20260902205628 | 56 | 332 | 6.0 | 11.0 | 0.00 | 0.00 | 0.00 | 83 | 1020.0 |
| 20260902204129 | 55 | 321 | 7.0 | 11.0 | 0.00 | 0.00 | 0.00 | 84 | 1020.0 |
| 20260902202626 | 54 | 294 | 5.0 | 11.0 | 0.00 | 0.00 | 0.00 | 85 | 1020.2 |
| 20260902201126 | 54 | 292 | 9.0 | 14.0 | 0.00 | 0.00 | 0.00 | 85 | 1020.3 |
| 20260902201019 | 54 | 281 | 11.0 | 19.0 | 0.00 | 0.00 | 0.00 | 85 | 1020.3 |
| 20260902194818 | 54 | 299 | 13.0 | 19.0 | 0.00 | 0.00 | 0.00 | 84 | 1020.2 |
| 20260902192618 | 53 | 271 | 14.0 | 19.0 | 0.00 | 0.00 | 0.00 | 84 | 1020.0 |
| 20260902191114 | 52 | 292 | 10.0 | 15.0 | 0.00 | 0.00 | 0.00 | 85 | 1019.8 |
| 20260902185609 | 51 | 313 | 7.0 | 10.0 | 0.00 | 0.00 | 0.00 | 84 | 1019.8 |
| 20260902184110 | 51 | 280 | 7.0 | 10.0 | 0.00 | 0.00 | 0.00 | 84 | 1019.5 |
| 20260902184000 | 52 | 280 | 7.0 | 15.0 | 0.00 | 0.00 | 0.00 | 84 | 1019.5 |
| 20260902183308 | 52 | 280 | 7.0 | 15.0 | 0.00 | 0.00 | 0.00 | 84 | 1019.5 |
| 20260902182609 | 52 | 280 | 7.0 | 15.0 | 0.00 | 0.00 | 0.00 | 84 | 1019.5 |
| 20260902181100 | 52 | 293 | 9.0 | 12.0 | 0.00 | 0.00 | 0.00 | 84 | 1019.3 |
| 20260902175556 | 52 | 338 | 9.0 | 14.0 | 0.00 | 0.00 | 0.00 | 83 | 1019.4 |
| 20260902174052 | 52 | 295 | 8.0 | 14.0 | 0.00 | 0.00 | 0.00 | 84 | 1019.4 |
| 20260902174022 | 52 | 306 | 9.0 | 14.0 | 0.00 | 0.00 | 0.00 | 84 | 1019.3 |
| 20260902171744 | 52 | 311 | 6.0 | 11.0 | 0.00 | 0.00 | 0.00 | 84 | 1019.1 |
| 20260902165543 | 52 | 311 | 9.0 | 12.0 | 0.00 | 0.00 | 0.00 | 84 | 1019.1 |
| 20260902164740 | 52 | 309 | 7.0 | 12.0 | 0.00 | 0.00 | 0.00 | 84 | 1019.2 |
| 20260902164138 | 52 | 309 | 7.0 | 12.0 | 0.00 | 0.00 | 0.00 | 84 | 1019.2 |
| 20260902162540 | 52 | 313 | 7.0 | 11.0 | 0.00 | 0.00 | 0.00 | 84 | 1019.2 |
| 20260902162434 | 52 | 306 | 7.0 | 12.0 | 0.00 | 0.00 | 0.00 | 83 | 1019.2 |
| 20260902161743 | 52 | 306 | 7.0 | 12.0 | 0.00 | 0.00 | 0.00 | 83 | 1019.2 |
| 20260902155531 | 52 | 287 | 9.0 | 12.0 | 0.00 | 0.00 | 0.00 | 83 | 1019.2 |
| 20260902155426 | 53 | 313 | 8.0 | 12.0 | 0.00 | 0.00 | 0.00 | 82 | 1019.2 |
| 20260902152527 | 53 | 309 | 8.0 | 13.0 | 0.00 | 0.00 | 0.00 | 82 | 1019.3 |
| 20260902151023 | 53 | 313 | 9.0 | 13.0 | 0.00 | 0.00 | 0.00 | 81 | 1019.3 |
| 20260902145520 | 53 | 294 | 9.0 | 13.0 | 0.00 | 0.00 | 0.00 | 80 | 1019.5 |
| 20260902144014 | 54 | 315 | 10.0 | 14.0 | 0.00 | 0.00 | 0.00 | 80 | 1019.7 |
| 20260902143214 | 54 | 302 | 5.0 | 10.0 | 0.00 | 0.00 | 0.00 | 78 | 1019.7 |
| 20260902141010 | 55 | 267 | 5.0 | 7.0 | 0.00 | 0.00 | 0.00 | 77 | 1019.9 |
| 20260902140205 | 54 | 289 | 4.0 | 9.0 | 0.00 | 0.00 | 0.00 | 77 | 1019.8 |
| 20260902134006 | 54 | 306 | 6.0 | 11.0 | 0.00 | 0.00 | 0.00 | 77 | 1019.7 |
| 20260902132503 | 54 | 288 | 5.0 | 9.0 | 0.00 | 0.00 | 0.00 | 76 | 1020.0 |
| 20260902131003 | 55 | 318 | 5.0 | 8.0 | 0.00 | 0.00 | 0.00 | 74 | 1019.8 |
| 20260902125458 | 56 | 13 | 0.0 | 7.0 | 0.00 | 0.00 | 0.00 | 71 | 1019.7 |
| 20260902123949 | 56 | 273 | 4.0 | 11.0 | 0.00 | 0.00 | 0.00 | 69 | 1019.7 |
| 20260902122450 | 57 | 231 | 5.0 | 10.0 | 0.00 | 0.00 | 0.00 | 68 | 1019.4 |
| 20260902120945 | 57 | 229 | 8.0 | 12.0 | 0.00 | 0.00 | 0.00 | 70 | 1019.3 |
| 20260902115441 | 56 | 236 | 5.0 | 12.0 | 0.00 | 0.00 | 0.00 | 73 | 1019.3 |
| 20260902113941 | 56 | 294 | 5.0 | 9.0 | 0.00 | 0.00 | 0.00 | 72 | 1019.2 |
| 20260902112437 | 57 | 302 | 7.0 | 12.0 | 0.00 | 0.00 | 0.00 | 70 | 1019.2 |
| 20260902110938 | 57 | 267 | 8.0 | 13.0 | 0.00 | 0.00 | 0.00 | 70 | 1019.2 |
| 20260902105433 | 56 | 252 | 6.0 | 9.0 | 0.00 | 0.00 | 0.00 | 72 | 1019.1 |
| 20260902103929 | 56 | 269 | 5.0 | 11.0 | 0.00 | 0.00 | 0.00 | 72 | 1019.1 |
| 20260902102424 | 56 | 286 | 10.0 | 18.0 | 0.00 | 0.00 | 0.00 | 72 | 1018.9 |
| 20260902100920 | 56 | 259 | 12.0 | 17.0 | 0.00 | 0.00 | 0.00 | 73 | 1019.1 |
| 20260902095417 | 56 | 280 | 9.0 | 15.0 | 0.00 | 0.00 | 0.00 | 74 | 1019.1 |
| 20260902093911 | 56 | 254 | 9.0 | 13.0 | 0.00 | 0.00 | 0.00 | 75 | 1019.1 |
| 20260902093811 | 56 | 267 | 8.0 | 13.0 | 0.00 | 0.00 | 0.00 | 74 | 1019.0 |
| 20260902090906 | 56 | 282 | 7.0 | 12.0 | 0.00 | 0.00 | 0.00 | 74 | 1019.1 |
| 20260902085402 | 56 | 267 | 8.0 | 12.0 | 0.00 | 0.00 | 0.00 | 75 | 1019.1 |
| 20260902083905 | 56 | 246 | 6.0 | 12.0 | 0.00 | 0.00 | 0.00 | 75 | 1019.1 |
| 20260902082359 | 56 | 291 | 6.0 | 12.0 | 0.00 | 0.00 | 0.00 | 74 | 1018.9 |
| 20260902080855 | 56 | 300 | 9.0 | 11.0 | 0.00 | 0.00 | 0.00 | 74 | 1018.9 |
| 20260902075350 | 56 | 272 | 6.0 | 10.0 | 0.00 | 0.00 | 0.00 | 74 | 1018.7 |
| 20260902073845 | 56 | 271 | 6.0 | 9.0 | 0.00 | 0.00 | 0.00 | 74 | 1018.9 |
| 20260902073046 | 57 | 269 | 9.0 | 14.0 | 0.00 | 0.00 | 0.00 | 74 | 1018.8 |
| 20260902070842 | 57 | 247 | 9.0 | 15.0 | 0.00 | 0.00 | 0.00 | 73 | 1018.5 |
| 20260902065340 | 57 | 255 | 10.0 | 14.0 | 0.00 | 0.00 | 0.00 | 73 | 1018.5 |
| 20260902063838 | 58 | 226 | 10.0 | 15.0 | 0.00 | 0.00 | 0.00 | 72 | 1018.3 |
| 20260902062334 | 58 | 256 | 9.0 | 16.0 | 0.00 | 0.00 | 0.00 | 72 | 1018.4 |
| 20260902060830 | 58 | 251 | 5.0 | 13.0 | 0.00 | 0.00 | 0.00 | 71 | 1018.5 |
| 20260902055326 | 59 | 263 | 6.0 | 13.0 | 0.00 | 0.00 | 0.00 | 70 | 1018.4 |
| 20260902053827 | 59 | 254 | 10.0 | 15.0 | 0.00 | 0.00 | 0.00 | 69 | 1018.3 |
| 20260902052322 | 60 | 287 | 9.0 | 14.0 | 0.00 | 0.00 | 0.00 | 68 | 1018.3 |
| 20260902050817 | 60 | 241 | 8.0 | 14.0 | 0.00 | 0.00 | 0.00 | 66 | 1017.9 |
| 20260902045319 | 60 | 257 | 10.0 | 17.0 | 0.00 | 0.00 | 0.00 | 66 | 1017.5 |
| 20260902043814 | 61 | 243 | 13.0 | 18.0 | 0.00 | 0.00 | 0.00 | 64 | 1017.5 |
| 20260902042310 | 61 | 254 | 13.0 | 26.0 | 0.00 | 0.00 | 0.00 | 64 | 1017.7 |
| 20260902040811 | 61 | 265 | 19.0 | 28.0 | 0.00 | 0.00 | 0.00 | 61 | 1017.7 |
| 20260902035306 | 62 | 242 | 16.0 | 25.0 | 0.00 | 0.00 | 0.00 | 63 | 1017.6 |
| 20260902033802 | 62 | 268 | 12.0 | 23.0 | 0.00 | 0.00 | 0.00 | 64 | 1017.9 |
| 20260902032305 | 60 | 268 | 14.0 | 20.0 | 0.00 | 0.00 | 0.00 | 67 | 1018.0 |
| 20260902030758 | 60 | 0 | 16.0 | 24.0 | 0.00 | 0.00 | 0.00 | 68 | 1017.7 |
| 20260902025259 | 61 | 0 | 19.0 | 30.0 | 0.00 | 0.00 | 0.00 | 66 | 1017.7 |
| 20260902024501 | 62 | 0 | 20.0 | 29.0 | 0.00 | 0.00 | 0.00 | 62 | 1017.6 |
| 20260902022250 | 63 | 0 | 17.0 | 28.0 | 0.00 | 0.00 | 0.00 | 61 | 1017.7 |
| 20260902020751 | 63 | 256 | 19.0 | 31.0 | 0.00 | 0.00 | 0.00 | 60 | 1017.7 |
| 20260902015246 | 63 | 239 | 11.0 | 23.0 | 0.00 | 0.00 | 0.00 | 61 | 1017.9 |
| 20260902013742 | 64 | 271 | 13.0 | 26.0 | 0.00 | 0.00 | 0.00 | 61 | 1018.1 |
| 20260902012935 | 62 | 270 | 13.0 | 20.0 | 0.00 | 0.00 | 0.00 | 65 | 1018.2 |
| 20260902010738 | 62 | 244 | 9.0 | 19.0 | 0.00 | 0.00 | 0.00 | 66 | 1018.4 |
| 20260902005238 | 61 | 242 | 15.0 | 27.0 | 0.00 | 0.00 | 0.00 | 66 | 1018.5 |
| 20260902003733 | 61 | 242 | 20.0 | 28.0 | 0.00 | 0.00 | 0.00 | 66 | 1018.8 |
| 20260902002229 | 62 | 263 | 9.0 | 16.0 | 0.00 | 0.00 | 0.00 | 64 | 1018.6 |
| 20260902002137 | 61 | 263 | 12.0 | 22.0 | 0.00 | 0.00 | 0.00 | 65 | 1018.7 |
| 20260901235226 | 61 | 237 | 13.0 | 21.0 | 0.00 | 0.00 | 0.00 | 65 | 1019.0 |
| 20260901233726 | 61 | 222 | 15.0 | 24.0 | 0.00 | 0.00 | 0.00 | 63 | 1019.0 |
| 20260901232222 | 61 | 230 | 13.0 | 21.0 | 0.00 | 0.00 | 0.00 | 64 | 1019.0 |
| 20260901230717 | 61 | 0 | 14.0 | 25.0 | 0.00 | 0.00 | 0.00 | 65 | 1018.9 |
| 20260901225213 | 60 | 232 | 11.0 | 18.0 | 0.00 | 0.00 | 0.00 | 67 | 1019.2 |
| 20260901223709 | 60 | 222 | 11.0 | 18.0 | 0.00 | 0.00 | 0.00 | 67 | 1019.3 |
| 20260901222209 | 59 | 263 | 15.0 | 21.0 | 0.00 | 0.00 | 0.00 | 68 | 1019.2 |
| 20260901220705 | 58 | 250 | 15.0 | 26.0 | 0.00 | 0.00 | 0.00 | 67 | 1019.3 |